Dublin, Ireland
Current Conditions -  °F | °C
As of 12:30 PM on Monday 20 Oct 2014 (Local Time) from EIDW Reporting Station
Broken Clouds Broken Clouds  
Wind Chill: 55°   Ceiling: 3000
Heat Index: 55°   Visibility: 6mi
Dew Point: 48°   Wind: 15mph
Humidity: 77%   Direction: 240°WSW
Pressure: 29.85"   Gusts: NA
Location:  53.33°N, 6.25°W
Report Text: EIDW 201230Z 24013KT 9999 FEW018 SCT021 BKN030 13/09 Q1011 NOSIG
Loading
Personal Weather Stations






























Interactive Weather Map New forecast layout! Learn more

10-Day Weather Forecast

Advertisements
Track Severe Weather on mobile